sensor_id;sensor_type;location;lat;lon;timestamp;pressure;altitude;pressure_sealevel;temperature;humidity
9235;BME280;4652;42.716;23.218;2023-05-11T00:02:02;94967.63;;;9.66;100.00
9235;BME280;4652;42.716;23.218;2023-05-11T00:08:45;94993.66;;;9.70;100.00
9235;BME280;4652;42.716;23.218;2023-05-11T00:15:28;94991.53;;;9.67;100.00
9235;BME280;4652;42.716;23.218;2023-05-11T00:22:10;94990.22;;;9.60;100.00
9235;BME280;4652;42.716;23.218;2023-05-11T00:28:52;94995.66;;;9.55;100.00
9235;BME280;4652;42.716;23.218;2023-05-11T00:35:35;94987.34;;;9.46;100.00
9235;BME280;4652;42.716;23.218;2023-05-11T00:42:17;95007.53;;;9.43;100.00
9235;BME280;4652;42.716;23.218;2023-05-11T00:48:59;95000.06;;;9.35;100.00
9235;BME280;4652;42.716;23.218;2023-05-11T00:55:43;95013.75;;;9.34;100.00
9235;BME280;4652;42.716;23.218;2023-05-11T01:07:59;94992.38;;;9.09;100.00
9235;BME280;4652;42.716;23.218;2023-05-11T01:14:47;94993.16;;;9.14;100.00
9235;BME280;4652;42.716;23.218;2023-05-11T01:21:34;94992.38;;;9.04;100.00
9235;BME280;4652;42.716;23.218;2023-05-11T01:28:36;94995.66;;;8.96;100.00
9235;BME280;4652;42.716;23.218;2023-05-11T01:35:25;94954.66;;;8.75;100.00
9235;BME280;4652;42.716;23.218;2023-05-11T09:18:26;95086.41;;;12.40;98.88
9235;BME280;4652;42.716;23.218;2023-05-11T09:25:10;95088.06;;;12.87;96.53
9235;BME280;4652;42.716;23.218;2023-05-11T09:31:53;95094.91;;;12.98;95.86
9235;BME280;4652;42.716;23.218;2023-05-11T09:38:36;95088.25;;;12.77;96.05
9235;BME280;4652;42.716;23.218;2023-05-11T09:45:33;95090.66;;;13.11;99.53
9235;BME280;4652;42.716;23.218;2023-05-11T09:52:17;95071.63;;;13.16;97.09
9235;BME280;4652;42.716;23.218;2023-05-11T09:59:01;95071.44;;;13.26;95.19
9235;BME280;4652;42.716;23.218;2023-05-11T10:05:55;95073.34;;;13.12;93.98
9235;BME280;4652;42.716;23.218;2023-05-11T10:12:37;95008.66;;;12.69;96.14
9235;BME280;4652;42.716;23.218;2023-05-11T10:19:21;95032.06;;;12.28;100.00
9235;BME280;4652;42.716;23.218;2023-05-11T10:26:04;95054.88;;;12.35;100.00
9235;BME280;4652;42.716;23.218;2023-05-11T10:32:46;95050.75;;;12.89;100.00
9235;BME280;4652;42.716;23.218;2023-05-11T10:39:31;95026.78;;;13.42;98.10
9235;BME280;4652;42.716;23.218;2023-05-11T10:46:24;95022.25;;;14.00;89.55
9235;BME280;4652;42.716;23.218;2023-05-11T10:53:25;95043.59;;;14.16;81.07
9235;BME280;4652;42.716;23.218;2023-05-11T11:00:38;95034.78;;;13.47;82.06
9235;BME280;4652;42.716;23.218;2023-05-11T11:07:30;95041.78;;;13.75;90.78
9235;BME280;4652;42.716;23.218;2023-05-11T11:14:13;95039.47;;;14.18;79.92
9235;BME280;4652;42.716;23.218;2023-05-11T11:20:57;95032.00;;;14.37;80.49
9235;BME280;4652;42.716;23.218;2023-05-11T11:27:57;95031.25;;;14.09;81.72
9235;BME280;4652;42.716;23.218;2023-05-11T11:34:39;95013.19;;;13.83;75.69
9235;BME280;4652;42.716;23.218;2023-05-11T11:41:29;95021.66;;;14.39;78.85
9235;BME280;4652;42.716;23.218;2023-05-11T11:48:20;95015.63;;;14.42;81.41
9235;BME280;4652;42.716;23.218;2023-05-11T11:55:02;95001.94;;;13.89;77.67
9235;BME280;4652;42.716;23.218;2023-05-11T12:01:50;95009.06;;;14.21;77.38
9235;BME280;4652;42.716;23.218;2023-05-11T12:08:34;95025.06;;;13.60;79.11
9235;BME280;4652;42.716;23.218;2023-05-11T12:15:23;95028.53;;;13.06;88.17
9235;BME280;4652;42.716;23.218;2023-05-11T12:22:06;95012.34;;;13.46;88.29
9235;BME280;4652;42.716;23.218;2023-05-11T12:28:51;95006.53;;;13.12;89.22
9235;BME280;4652;42.716;23.218;2023-05-11T12:35:33;94995.50;;;13.63;88.33
9235;BME280;4652;42.716;23.218;2023-05-11T12:42:18;95000.72;;;13.32;87.87
9235;BME280;4652;42.716;23.218;2023-05-11T12:49:01;94973.78;;;13.27;88.90
9235;BME280;4652;42.716;23.218;2023-05-11T12:55:44;94989.72;;;13.15;90.09
9235;BME280;4652;42.716;23.218;2023-05-11T13:07:58;94960.38;;;13.72;88.89
9235;BME280;4652;42.716;23.218;2023-05-11T13:14:40;94958.16;;;13.24;85.05
9235;BME280;4652;42.716;23.218;2023-05-11T13:21:22;94946.75;;;13.14;89.31
9235;BME280;4652;42.716;23.218;2023-05-11T13:28:06;94955.44;;;12.97;89.28
9235;BME280;4652;42.716;23.218;2023-05-11T13:34:47;94943.22;;;12.72;90.60
9235;BME280;4652;42.716;23.218;2023-05-11T13:41:29;94937.03;;;12.72;94.67
9235;BME280;4652;42.716;23.218;2023-05-11T13:48:13;94924.81;;;12.61;96.79
9235;BME280;4652;42.716;23.218;2023-05-11T13:54:55;94949.44;;;12.86;95.62
9235;BME280;4652;42.716;23.218;2023-05-11T14:01:38;94942.78;;;12.52;92.78
9235;BME280;4652;42.716;23.218;2023-05-11T14:08:21;94940.09;;;12.52;94.07
9235;BME280;4652;42.716;23.218;2023-05-11T14:15:04;94937.00;;;12.45;93.25
9235;BME280;4652;42.716;23.218;2023-05-11T14:21:46;94938.22;;;12.66;95.28
9235;BME280;4652;42.716;23.218;2023-05-11T14:28:29;94926.41;;;12.75;94.95
9235;BME280;4652;42.716;23.218;2023-05-11T14:35:11;94928.41;;;12.43;93.21
9235;BME280;4652;42.716;23.218;2023-05-11T14:41:53;94917.75;;;12.32;91.88
9235;BME280;4652;42.716;23.218;2023-05-11T14:48:37;94930.50;;;12.59;93.73
9235;BME280;4652;42.716;23.218;2023-05-11T14:55:19;94922.75;;;12.25;91.47
9235;BME280;4652;42.716;23.218;2023-05-11T15:02:01;94924.22;;;12.18;92.11
9235;BME280;4652;42.716;23.218;2023-05-11T15:08:44;94934.72;;;12.19;95.30
9235;BME280;4652;42.716;23.218;2023-05-11T15:15:26;94926.53;;;12.24;92.62
9235;BME280;4652;42.716;23.218;2023-05-11T15:22:08;94938.94;;;12.25;90.18
9235;BME280;4652;42.716;23.218;2023-05-11T15:28:51;94929.22;;;12.24;84.61
9235;BME280;4652;42.716;23.218;2023-05-11T15:35:34;94898.38;;;11.98;85.54
9235;BME280;4652;42.716;23.218;2023-05-11T15:42:16;94927.31;;;12.11;86.29
9235;BME280;4652;42.716;23.218;2023-05-11T15:48:59;94937.00;;;12.12;84.03
9235;BME280;4652;42.716;23.218;2023-05-11T15:55:41;94926.72;;;12.14;85.14
9235;BME280;4652;42.716;23.218;2023-05-11T16:02:25;94920.28;;;12.10;85.10
9235;BME280;4652;42.716;23.218;2023-05-11T16:09:09;94913.06;;;11.92;86.24
9235;BME280;4652;42.716;23.218;2023-05-11T16:15:51;94929.66;;;11.99;83.98
9235;BME280;4652;42.716;23.218;2023-05-11T16:22:33;94919.75;;;11.95;83.66
9235;BME280;4652;42.716;23.218;2023-05-11T16:29:18;94926.69;;;12.01;83.18
9235;BME280;4652;42.716;23.218;2023-05-11T16:35:59;94897.44;;;11.89;82.15
9235;BME280;4652;42.716;23.218;2023-05-11T16:42:42;94925.47;;;12.07;82.40
9235;BME280;4652;42.716;23.218;2023-05-11T16:49:25;94925.06;;;12.00;81.26
9235;BME280;4652;42.716;23.218;2023-05-11T16:56:07;94926.47;;;11.97;81.48
9235;BME280;4652;42.716;23.218;2023-05-11T17:02:49;94925.06;;;12.00;83.14
9235;BME280;4652;42.716;23.218;2023-05-11T17:09:32;94785.59;;;10.98;82.28
9235;BME280;4652;42.716;23.218;2023-05-11T17:16:14;94937.03;;;11.94;84.26
9235;BME280;4652;42.716;23.218;2023-05-11T17:22:56;94938.75;;;11.90;85.55
9235;BME280;4652;42.716;23.218;2023-05-11T17:29:41;94944.41;;;11.88;84.75
9235;BME280;4652;42.716;23.218;2023-05-11T17:36:23;94937.94;;;11.89;86.84
9235;BME280;4652;42.716;23.218;2023-05-11T17:43:08;94931.00;;;11.83;85.89
9235;BME280;4652;42.716;23.218;2023-05-11T17:49:52;94944.00;;;11.81;87.35
9235;BME280;4652;42.716;23.218;2023-05-11T17:56:34;94905.91;;;11.64;87.17
9235;BME280;4652;42.716;23.218;2023-05-11T18:03:16;94938.97;;;11.74;86.26
9235;BME280;4652;42.716;23.218;2023-05-11T18:10:00;94931.16;;;11.73;87.59
9235;BME280;4652;42.716;23.218;2023-05-11T18:16:42;94941.88;;;11.78;85.70
9235;BME280;4652;42.716;23.218;2023-05-11T18:23:25;94959.72;;;11.74;87.72
9235;BME280;4652;42.716;23.218;2023-05-11T18:30:10;94958.72;;;11.70;88.74
9235;BME280;4652;42.716;23.218;2023-05-11T18:36:52;94954.16;;;11.70;88.57
9235;BME280;4652;42.716;23.218;2023-05-11T18:43:34;94966.50;;;11.71;89.78
9235;BME280;4652;42.716;23.218;2023-05-11T18:50:17;94962.25;;;11.65;90.47
9235;BME280;4652;42.716;23.218;2023-05-11T18:56:59;94972.75;;;11.67;91.13
9235;BME280;4652;42.716;23.218;2023-05-11T19:07:54;94973.03;;;11.65;89.00
9235;BME280;4652;42.716;23.218;2023-05-11T19:14:36;94972.25;;;11.65;88.71
9235;BME280;4652;42.716;23.218;2023-05-11T19:21:19;94978.25;;;11.62;89.03
9235;BME280;4652;42.716;23.218;2023-05-11T19:28:03;94982.00;;;11.61;89.64
9235;BME280;4652;42.716;23.218;2023-05-11T19:34:45;94987.41;;;11.61;91.05
9235;BME280;4652;42.716;23.218;2023-05-11T19:41:27;94972.78;;;11.48;90.83
9235;BME280;4652;42.716;23.218;2023-05-11T19:48:11;94983.19;;;11.55;91.69
9235;BME280;4652;42.716;23.218;2023-05-11T19:54:53;94959.56;;;11.47;92.38
9235;BME280;4652;42.716;23.218;2023-05-11T20:01:35;94981.00;;;11.57;92.83
9235;BME280;4652;42.716;23.218;2023-05-11T20:08:18;94982.38;;;11.54;94.55
9235;BME280;4652;42.716;23.218;2023-05-11T20:15:00;94990.47;;;11.54;95.50
9235;BME280;4652;42.716;23.218;2023-05-11T20:21:42;94986.16;;;11.35;95.86
9235;BME280;4652;42.716;23.218;2023-05-11T20:28:26;94981.72;;;11.44;97.54
9235;BME280;4652;42.716;23.218;2023-05-11T20:35:08;94988.06;;;11.34;99.97
9235;BME280;4652;42.716;23.218;2023-05-11T20:41:51;94991.59;;;11.30;100.00
9235;BME280;4652;42.716;23.218;2023-05-11T20:48:34;94972.94;;;11.14;100.00
9235;BME280;4652;42.716;23.218;2023-05-11T20:55:16;95000.13;;;11.18;100.00
9235;BME280;4652;42.716;23.218;2023-05-11T21:01:58;95001.03;;;11.08;100.00
9235;BME280;4652;42.716;23.218;2023-05-11T21:08:42;95001.66;;;11.00;100.00
9235;BME280;4652;42.716;23.218;2023-05-11T21:15:24;95015.13;;;11.00;100.00
9235;BME280;4652;42.716;23.218;2023-05-11T21:22:05;95003.63;;;10.95;100.00
9235;BME280;4652;42.716;23.218;2023-05-11T21:28:50;95011.00;;;10.84;100.00
9235;BME280;4652;42.716;23.218;2023-05-11T21:35:32;95005.13;;;10.77;100.00
9235;BME280;4652;42.716;23.218;2023-05-11T21:42:14;95008.56;;;10.59;100.00
9235;BME280;4652;42.716;23.218;2023-05-11T21:48:57;95010.44;;;10.58;100.00
9235;BME280;4652;42.716;23.218;2023-05-11T21:55:39;95016.56;;;10.40;100.00
9235;BME280;4652;42.716;23.218;2023-05-11T22:02:22;95026.56;;;10.35;100.00
9235;BME280;4652;42.716;23.218;2023-05-11T22:09:05;95027.78;;;10.19;100.00
9235;BME280;4652;42.716;23.218;2023-05-11T22:15:47;95035.97;;;9.98;100.00
9235;BME280;4652;42.716;23.218;2023-05-11T22:22:28;95043.59;;;9.81;100.00
9235;BME280;4652;42.716;23.218;2023-05-11T22:29:12;95045.84;;;9.64;100.00
9235;BME280;4652;42.716;23.218;2023-05-11T22:35:55;95044.81;;;9.60;100.00
9235;BME280;4652;42.716;23.218;2023-05-11T22:42:37;95058.63;;;9.38;100.00
9235;BME280;4652;42.716;23.218;2023-05-11T22:49:20;95056.78;;;9.29;100.00
9235;BME280;4652;42.716;23.218;2023-05-11T22:56:03;95052.47;;;9.28;100.00
9235;BME280;4652;42.716;23.218;2023-05-11T23:02:45;95066.50;;;9.10;100.00
9235;BME280;4652;42.716;23.218;2023-05-11T23:09:28;95069.72;;;9.17;100.00
9235;BME280;4652;42.716;23.218;2023-05-11T23:16:10;95060.63;;;9.08;100.00
9235;BME280;4652;42.716;23.218;2023-05-11T23:22:52;95066.00;;;9.03;100.00
9235;BME280;4652;42.716;23.218;2023-05-11T23:29:35;95061.75;;;8.92;100.00
9235;BME280;4652;42.716;23.218;2023-05-11T23:36:17;95045.09;;;8.84;100.00
9235;BME280;4652;42.716;23.218;2023-05-11T23:42:59;95063.38;;;8.82;100.00
9235;BME280;4652;42.716;23.218;2023-05-11T23:49:42;95059.03;;;8.86;100.00
9235;BME280;4652;42.716;23.218;2023-05-11T23:56:24;95053.69;;;8.81;100.00
